createdAt,value
2022-09-20T00:00:48.014Z,13.00
2022-09-20T00:03:16.302Z,13.00
2022-09-20T00:05:45.281Z,13.00
2022-09-20T00:08:15.589Z,13.00
2022-09-20T00:10:42.966Z,13.00
2022-09-20T00:13:11.924Z,13.10
2022-09-20T00:15:46.185Z,13.00
2022-09-20T00:18:13.483Z,13.40
2022-09-20T00:20:50.942Z,13.20
2022-09-20T00:23:18.706Z,13.20
2022-09-20T00:25:46.551Z,13.20
2022-09-20T00:28:13.309Z,13.40
2022-09-20T00:30:40.016Z,13.20
2022-09-20T00:33:06.806Z,13.30
2022-09-20T00:35:33.572Z,13.20
2022-09-20T00:38:00.520Z,13.20
2022-09-20T00:40:27.339Z,13.20
2022-09-20T00:42:54.229Z,13.20
2022-09-20T00:45:24.901Z,13.10
2022-09-20T00:48:05.057Z,13.20
2022-09-20T00:50:49.376Z,13.20
2022-09-20T00:53:26.348Z,13.20
2022-09-20T00:56:11.764Z,13.20
2022-09-20T00:58:45.431Z,13.20
2022-09-20T01:01:12.685Z,13.20
2022-09-20T01:03:42.104Z,13.20
2022-09-20T01:06:11.871Z,13.30
2022-09-20T01:08:40.378Z,13.30
2022-09-20T01:11:07.237Z,13.20
2022-09-20T01:13:33.953Z,13.20
2022-09-20T01:16:02.483Z,13.20
2022-09-20T01:18:31.864Z,13.20
2022-09-20T01:21:01.055Z,13.20
2022-09-20T01:23:45.783Z,13.20
2022-09-20T01:26:27.703Z,13.20
2022-09-20T01:29:19.979Z,13.20
2022-09-20T01:31:53.186Z,13.20
2022-09-20T01:34:37.572Z,13.20
2022-09-20T01:37:04.286Z,13.30
2022-09-20T01:39:40.308Z,13.20
2022-09-20T01:42:13.036Z,13.30
2022-09-20T01:44:58.753Z,13.20
2022-09-20T01:47:40.173Z,13.20
2022-09-20T01:50:33.298Z,13.20
2022-09-20T01:53:05.982Z,13.20
2022-09-20T01:56:05.626Z,13.20
2022-09-20T01:59:23.572Z,13.10
2022-09-20T02:02:07.610Z,13.10
2022-09-20T02:05:05.248Z,13.00
2022-09-20T02:07:46.758Z,13.00
2022-09-20T02:10:19.254Z,13.00
2022-09-20T02:12:55.411Z,12.90
2022-09-20T02:15:55.536Z,13.00
2022-09-20T02:18:28.384Z,13.00
2022-09-20T02:21:39.306Z,13.00
2022-09-20T02:24:27.202Z,13.10
2022-09-20T02:27:12.114Z,13.00
2022-09-20T02:29:42.117Z,13.00
2022-09-20T02:32:24.902Z,13.00
2022-09-20T02:35:13.142Z,13.00
2022-09-20T02:38:09.780Z,13.00
2022-09-20T02:41:14.186Z,13.00
2022-09-20T02:43:55.965Z,13.00
2022-09-20T02:46:34.653Z,13.00
2022-09-20T02:49:29.177Z,13.00
2022-09-20T02:52:02.260Z,12.90
2022-09-20T02:54:40.985Z,12.90
2022-09-20T02:57:30.061Z,12.80
2022-09-20T03:00:05.949Z,12.80
2022-09-20T03:02:39.657Z,12.80
2022-09-20T03:05:32.674Z,12.80
2022-09-20T03:08:14.054Z,12.80
2022-09-20T03:11:02.279Z,12.80
2022-09-20T03:14:03.607Z,12.90
2022-09-20T03:16:59.694Z,12.80
2022-09-20T03:19:26.554Z,12.80
2022-09-20T03:22:15.872Z,12.80
2022-09-20T03:25:21.458Z,12.80
2022-09-20T03:28:29.236Z,12.80
2022-09-20T03:30:56.929Z,12.70
2022-09-20T03:33:40.001Z,12.70
2022-09-20T03:36:31.902Z,12.80
2022-09-20T03:39:04.432Z,12.80
2022-09-20T03:41:45.869Z,12.80
2022-09-20T03:44:27.665Z,12.80
2022-09-20T03:47:14.783Z,13.00
2022-09-20T03:50:03.788Z,12.80
2022-09-20T03:52:57.692Z,12.90
2022-09-20T03:55:49.479Z,12.90
2022-09-20T03:58:39.736Z,12.90
2022-09-20T04:01:15.718Z,12.90
2022-09-20T04:03:53.515Z,12.90
2022-09-20T04:06:58.228Z,12.80
2022-09-20T04:09:24.942Z,12.70
2022-09-20T04:12:39.177Z,12.60
2022-09-20T04:15:27.650Z,12.40
2022-09-20T04:18:04.992Z,12.30
2022-09-20T04:21:02.876Z,12.20
2022-09-20T04:23:35.629Z,12.10
2022-09-20T04:26:04.120Z,12.10
2022-09-20T04:28:43.268Z,12.00
2022-09-20T04:31:36.623Z,11.90
2022-09-20T04:34:12.133Z,11.80
2022-09-20T04:37:03.694Z,11.80
2022-09-20T04:40:13.803Z,11.70
2022-09-20T04:43:02.931Z,11.70
2022-09-20T04:46:08.569Z,11.70
2022-09-20T04:49:10.215Z,11.60
2022-09-20T04:51:58.149Z,11.50
2022-09-20T04:55:05.317Z,11.50
2022-09-20T04:57:55.512Z,11.50
2022-09-20T05:00:26.569Z,11.40
2022-09-20T05:03:09.605Z,11.40
2022-09-20T05:05:42.241Z,11.40
2022-09-20T05:08:27.663Z,11.40
2022-09-20T05:11:12.781Z,11.40
2022-09-20T05:13:57.682Z,11.30
2022-09-20T05:16:47.488Z,11.30
2022-09-20T05:19:26.389Z,11.20
2022-09-20T05:22:24.505Z,11.20
2022-09-20T05:25:09.814Z,11.20
2022-09-20T05:27:45.508Z,11.20
2022-09-20T05:30:33.630Z,11.20
2022-09-20T05:33:20.544Z,11.20
2022-09-20T05:36:08.719Z,11.20
2022-09-20T05:38:53.043Z,11.20
2022-09-20T05:41:46.659Z,11.30
2022-09-20T05:44:43.523Z,11.20
2022-09-20T05:47:18.556Z,11.20
2022-09-20T05:50:15.099Z,11.20
2022-09-20T05:53:16.993Z,11.20
2022-09-20T05:55:46.935Z,11.20
2022-09-20T05:58:54.590Z,11.20
2022-09-20T06:01:32.193Z,11.20
2022-09-20T06:04:19.417Z,11.20
2022-09-20T06:07:12.762Z,11.30
2022-09-20T06:10:05.856Z,11.20
2022-09-20T06:12:35.693Z,11.20
2022-09-20T06:15:36.172Z,11.30
2022-09-20T06:18:18.862Z,11.30
2022-09-20T06:20:57.529Z,11.30
2022-09-20T06:23:24.922Z,11.40
2022-09-20T06:26:01.897Z,11.50
2022-09-20T06:28:43.093Z,11.40
2022-09-20T06:31:11.385Z,11.50
2022-09-20T06:34:07.305Z,11.60
2022-09-20T06:36:55.484Z,11.70
2022-09-20T06:40:06.695Z,11.80
2022-09-20T06:42:33.509Z,11.90
2022-09-20T06:45:00.343Z,12.00
2022-09-20T06:47:27.157Z,12.10
2022-09-20T06:49:53.938Z,12.30
2022-09-20T06:52:22.888Z,12.40
2022-09-20T06:54:55.036Z,12.50
2022-09-20T06:57:36.352Z,12.80
2022-09-20T07:00:06.721Z,12.80
2022-09-20T07:02:33.500Z,12.90
2022-09-20T07:05:01.371Z,13.10
2022-09-20T07:07:28.156Z,13.10
2022-09-20T07:09:54.876Z,13.10
2022-09-20T07:12:21.707Z,13.30
2022-09-20T07:14:50.460Z,13.40
2022-09-20T07:17:17.281Z,13.50
2022-09-20T07:19:44.039Z,13.60
2022-09-20T07:22:10.976Z,13.70
2022-09-20T07:24:40.471Z,13.70
2022-09-20T07:27:07.286Z,13.80
2022-09-20T07:29:35.173Z,13.80
2022-09-20T07:32:02.244Z,13.70
2022-09-20T07:34:29.453Z,13.70
2022-09-20T07:36:59.854Z,13.80
2022-09-20T07:39:27.024Z,13.80
2022-09-20T07:41:54.047Z,14.00
2022-09-20T07:44:21.442Z,14.00
2022-09-20T07:46:57.420Z,14.00
2022-09-20T07:49:26.025Z,14.20
2022-09-20T07:51:53.847Z,14.10
2022-09-20T07:54:20.798Z,14.20
2022-09-20T07:56:48.317Z,14.20
2022-09-20T07:59:15.775Z,14.10
2022-09-20T08:01:43.291Z,14.00
2022-09-20T08:04:10.702Z,13.90
2022-09-20T08:06:38.823Z,14.00
2022-09-20T08:09:10.780Z,14.10
2022-09-20T08:11:39.380Z,14.60
2022-09-20T08:14:08.020Z,15.30
2022-09-20T08:16:40.805Z,15.90
2022-09-20T08:19:08.251Z,16.20
2022-09-20T08:21:37.848Z,16.30
2022-09-20T08:24:04.670Z,16.40
2022-09-20T08:26:31.721Z,16.50
2022-09-20T08:28:59.937Z,16.50
2022-09-20T08:31:35.314Z,16.60
2022-09-20T08:34:03.842Z,16.60
2022-09-20T08:36:36.463Z,16.60
2022-09-20T08:41:57.003Z,16.60
2022-09-20T08:44:29.692Z,16.70
2022-09-20T08:47:15.905Z,16.80
2022-09-20T08:49:46.027Z,16.90
2022-09-20T08:52:19.737Z,16.80
2022-09-20T08:54:46.820Z,17.00
2022-09-20T08:57:17.963Z,17.10
2022-09-20T08:59:44.983Z,17.00
2022-09-20T09:02:20.596Z,17.00
2022-09-20T09:04:49.817Z,17.00
2022-09-20T09:07:21.720Z,17.00
2022-09-20T09:09:52.425Z,17.10
2022-09-20T09:12:29.966Z,17.20
2022-09-20T09:15:23.890Z,17.30
2022-09-20T09:17:50.582Z,17.40
2022-09-20T09:20:22.400Z,17.40
2022-09-20T09:23:03.141Z,17.40
2022-09-20T09:25:39.829Z,17.50
2022-09-20T09:28:07.149Z,17.60
2022-09-20T09:30:36.641Z,17.40
2022-09-20T09:33:25.270Z,17.60
2022-09-20T09:36:04.280Z,17.60
2022-09-20T09:38:44.495Z,17.60
2022-09-20T09:41:35.580Z,17.50
2022-09-20T09:44:27.651Z,17.50
2022-09-20T09:46:56.568Z,17.40
2022-09-20T09:49:34.012Z,17.50
2022-09-20T09:52:13.176Z,17.30
2022-09-20T09:54:46.905Z,17.30
2022-09-20T09:57:17.275Z,17.40
2022-09-20T10:00:21.485Z,17.50
2022-09-20T10:02:58.170Z,17.50
2022-09-20T10:05:53.627Z,17.50
2022-09-20T10:08:25.656Z,17.50
2022-09-20T10:11:17.357Z,17.60
2022-09-20T10:13:59.090Z,17.60
2022-09-20T10:16:25.955Z,17.70
2022-09-20T10:18:59.440Z,17.80
2022-09-20T10:21:37.000Z,18.00
2022-09-20T10:24:30.507Z,17.90
2022-09-20T10:27:14.347Z,17.80
2022-09-20T10:30:10.741Z,17.70
2022-09-20T10:33:15.124Z,17.70
2022-09-20T10:35:57.691Z,17.70
2022-09-20T10:38:37.409Z,17.60
2022-09-20T10:41:56.534Z,17.70
2022-09-20T10:44:47.845Z,17.60
2022-09-20T10:47:22.309Z,17.70
2022-09-20T10:50:13.185Z,17.80
2022-09-20T10:53:19.147Z,17.90
2022-09-20T10:55:59.163Z,18.10
2022-09-20T10:59:02.221Z,18.30
2022-09-20T11:01:47.341Z,18.30
2022-09-20T11:04:29.114Z,18.60
2022-09-20T11:07:05.571Z,18.90
2022-09-20T11:09:40.454Z,19.10
2022-09-20T11:12:23.315Z,19.30
2022-09-20T11:15:04.301Z,19.50
2022-09-20T11:17:38.949Z,19.40
2022-09-20T11:20:08.058Z,19.30
2022-09-20T11:22:48.277Z,19.30
2022-09-20T11:25:36.774Z,19.20
2022-09-20T11:28:15.533Z,19.00
2022-09-20T11:30:54.263Z,18.90
2022-09-20T11:33:41.432Z,18.90
2022-09-20T11:36:23.714Z,18.80
2022-09-20T11:38:57.480Z,18.80
2022-09-20T11:41:29.513Z,18.80
2022-09-20T11:44:04.046Z,19.00
2022-09-20T11:46:38.431Z,19.20
2022-09-20T11:49:21.064Z,19.20
2022-09-20T11:52:09.253Z,19.30
2022-09-20T11:54:36.217Z,19.50
2022-09-20T11:57:05.945Z,19.70
2022-09-20T11:59:40.729Z,19.90
2022-09-20T12:02:33.225Z,20.10
2022-09-20T12:05:01.869Z,20.20
2022-09-20T12:07:36.646Z,20.30
2022-09-20T12:10:10.633Z,20.40
2022-09-20T12:12:44.638Z,20.60
2022-09-20T12:15:39.027Z,20.70
2022-09-20T12:18:26.696Z,20.70
2022-09-20T12:21:01.185Z,20.60
2022-09-20T12:23:40.344Z,20.60
2022-09-20T12:26:22.407Z,20.50
2022-09-20T12:28:58.668Z,20.50
2022-09-20T12:31:26.369Z,20.50
2022-09-20T12:34:13.518Z,20.60
2022-09-20T12:36:53.354Z,20.70
2022-09-20T12:39:30.474Z,20.80
2022-09-20T12:42:12.486Z,21.00
2022-09-20T12:44:51.355Z,21.00
2022-09-20T12:47:25.033Z,20.80
2022-09-20T12:50:11.813Z,20.60
2022-09-20T12:52:58.429Z,20.40
2022-09-20T12:55:43.766Z,20.40
2022-09-20T12:58:14.020Z,20.40
2022-09-20T13:00:59.083Z,20.40
2022-09-20T13:03:28.700Z,20.50
2022-09-20T13:06:05.884Z,20.50
2022-09-20T13:08:32.685Z,20.80
2022-09-20T13:11:01.749Z,20.70
2022-09-20T13:13:44.083Z,20.60
2022-09-20T13:16:22.177Z,20.60
2022-09-20T13:19:14.089Z,20.90
2022-09-20T13:21:49.656Z,20.90
2022-09-20T13:24:19.077Z,20.90
2022-09-20T13:26:47.774Z,20.60
2022-09-20T13:29:31.823Z,20.60
2022-09-20T13:32:18.857Z,20.30
2022-09-20T13:34:45.774Z,20.20
2022-09-20T13:37:21.642Z,20.00
2022-09-20T13:39:54.422Z,19.80
2022-09-20T13:42:21.567Z,19.50
2022-09-20T13:44:49.544Z,19.30
2022-09-20T13:47:24.965Z,19.30
2022-09-20T13:49:52.182Z,19.30
2022-09-20T13:52:48.814Z,19.20
2022-09-20T13:55:36.197Z,19.20
2022-09-20T13:58:17.218Z,19.10
2022-09-20T14:00:50.901Z,18.90
2022-09-20T14:03:18.430Z,18.90
2022-09-20T14:05:57.130Z,18.80
2022-09-20T14:08:33.154Z,18.80
2022-09-20T14:11:28.558Z,18.70
2022-09-20T14:13:58.138Z,18.80
2022-09-20T14:16:31.625Z,18.70
2022-09-20T14:19:00.014Z,18.70
2022-09-20T14:21:28.865Z,18.80
2022-09-20T14:24:02.169Z,19.10
2022-09-20T14:26:37.459Z,19.20
2022-09-20T14:29:30.554Z,19.00
2022-09-20T14:32:21.799Z,18.70
2022-09-20T14:34:59.129Z,18.60
2022-09-20T14:37:40.696Z,18.60
2022-09-20T14:40:24.200Z,18.70
2022-09-20T14:42:55.211Z,18.80
2022-09-20T14:45:37.629Z,18.90
2022-09-20T14:48:11.548Z,19.20
2022-09-20T14:50:44.161Z,19.10
2022-09-20T14:53:10.959Z,19.20
2022-09-20T14:55:54.976Z,19.20
2022-09-20T14:58:21.601Z,19.20
2022-09-20T15:01:02.570Z,19.00
2022-09-20T15:03:41.281Z,18.80
2022-09-20T15:06:12.736Z,18.50
2022-09-20T15:08:45.444Z,18.60
2022-09-20T15:11:17.451Z,18.50
2022-09-20T15:13:44.642Z,18.40
2022-09-20T15:16:13.412Z,18.30
2022-09-20T15:18:44.610Z,18.80
2022-09-20T15:21:11.825Z,19.20
2022-09-20T15:23:39.457Z,19.30
2022-09-20T15:26:08.854Z,19.30
2022-09-20T15:28:35.748Z,19.80
2022-09-20T15:31:02.659Z,21.40
2022-09-20T15:33:32.092Z,23.10
2022-09-20T15:36:01.944Z,23.70
2022-09-20T15:38:28.868Z,24.30
2022-09-20T15:40:55.692Z,23.90
2022-09-20T15:43:26.346Z,23.80
2022-09-20T15:45:55.457Z,22.80
2022-09-20T15:48:25.051Z,21.60
2022-09-20T15:51:02.225Z,20.60
2022-09-20T15:53:34.913Z,19.60
2022-09-20T15:56:04.008Z,18.90
2022-09-20T15:58:36.280Z,18.40
2022-09-20T16:01:08.536Z,18.10
2022-09-20T16:03:36.121Z,17.80
2022-09-20T16:06:06.340Z,17.70
2022-09-20T16:08:36.133Z,17.40
2022-09-20T16:11:04.124Z,17.20
2022-09-20T16:13:31.052Z,17.10
2022-09-20T16:16:02.037Z,17.00
2022-09-20T16:18:48.970Z,16.90
2022-09-20T16:21:18.319Z,16.80
2022-09-20T16:23:55.211Z,17.00
2022-09-20T16:26:29.448Z,16.80
2022-09-20T16:28:57.724Z,16.70
2022-09-20T16:31:39.722Z,16.60
2022-09-20T16:34:14.157Z,16.50
2022-09-20T16:36:42.258Z,16.40
2022-09-20T16:39:09.923Z,16.40
2022-09-20T16:41:37.238Z,16.40
2022-09-20T16:44:06.365Z,16.30
2022-09-20T16:46:36.321Z,16.30
2022-09-20T16:49:06.370Z,16.30
2022-09-20T16:51:36.371Z,16.30
2022-09-20T16:54:11.575Z,16.20
2022-09-20T16:56:40.381Z,16.20
2022-09-20T16:59:07.440Z,16.20
2022-09-20T17:01:36.610Z,16.10
2022-09-20T17:04:05.351Z,16.10
2022-09-20T17:06:34.398Z,16.30
2022-09-20T17:09:01.864Z,16.10
2022-09-20T17:11:31.134Z,16.10
2022-09-20T17:13:58.630Z,16.10
2022-09-20T17:16:30.094Z,16.10
2022-09-20T17:19:00.676Z,16.10
2022-09-20T17:21:28.896Z,16.00
2022-09-20T17:24:01.848Z,15.90
2022-09-20T17:26:41.715Z,15.80
2022-09-20T17:29:11.479Z,15.70
2022-09-20T17:31:41.835Z,15.80
2022-09-20T17:34:11.362Z,15.50
2022-09-20T17:36:43.338Z,15.40
2022-09-20T17:39:12.758Z,15.30
2022-09-20T17:41:41.300Z,15.40
2022-09-20T17:44:09.872Z,15.10
2022-09-20T17:46:39.213Z,15.20
2022-09-20T17:49:08.256Z,15.00
2022-09-20T17:51:44.218Z,14.90
2022-09-20T17:54:14.658Z,14.80
2022-09-20T17:56:43.466Z,14.80
2022-09-20T17:59:12.185Z,15.00
2022-09-20T18:01:40.419Z,14.80
2022-09-20T18:04:08.699Z,14.90
2022-09-20T18:06:37.059Z,14.80
2022-09-20T18:09:08.062Z,14.70
2022-09-20T18:11:48.644Z,14.70
2022-09-20T18:14:17.397Z,14.80
2022-09-20T18:16:44.228Z,14.90
2022-09-20T18:19:13.101Z,14.90
2022-09-20T18:21:41.047Z,14.90
2022-09-20T18:24:10.142Z,15.10
2022-09-20T18:26:38.885Z,14.80
2022-09-20T18:29:19.009Z,14.80
2022-09-20T18:31:47.203Z,14.70
2022-09-20T18:34:18.139Z,14.70
2022-09-20T18:36:58.048Z,14.60
2022-09-20T18:39:32.054Z,14.60
2022-09-20T18:42:00.031Z,14.60
2022-09-20T18:44:33.834Z,14.60
2022-09-20T18:47:02.646Z,14.60
2022-09-20T18:49:30.795Z,14.60
2022-09-20T18:51:58.536Z,14.60
2022-09-20T18:54:30.421Z,14.60
2022-09-20T18:56:57.540Z,14.60
2022-09-20T18:59:27.018Z,14.60
2022-09-20T19:02:09.277Z,14.60
2022-09-20T19:05:12.262Z,14.50
2022-09-20T19:07:42.249Z,14.40
2022-09-20T19:10:19.330Z,14.30
2022-09-20T19:13:05.129Z,14.30
2022-09-20T19:15:38.766Z,14.20
2022-09-20T19:18:25.686Z,14.10
2022-09-20T19:21:17.641Z,14.10
2022-09-20T19:24:05.857Z,14.00
2022-09-20T19:26:40.816Z,14.00
2022-09-20T19:29:19.542Z,14.00
2022-09-20T19:31:49.126Z,13.90
2022-09-20T19:34:29.781Z,13.90
2022-09-20T19:37:18.716Z,13.80
2022-09-20T19:40:00.793Z,13.80
2022-09-20T19:43:00.046Z,13.80
2022-09-20T19:45:40.574Z,13.80
2022-09-20T19:48:21.852Z,13.80
2022-09-20T19:50:52.279Z,14.00
2022-09-20T19:53:22.258Z,13.90
2022-09-20T19:56:12.543Z,14.00
2022-09-20T19:58:46.495Z,13.90
2022-09-20T20:01:13.783Z,13.90
2022-09-20T20:03:41.204Z,13.90
2022-09-20T20:06:26.398Z,13.90
2022-09-20T20:09:22.647Z,13.90
2022-09-20T20:12:14.836Z,13.90
2022-09-20T20:15:02.760Z,13.90
2022-09-20T20:18:07.283Z,13.80
2022-09-20T20:20:40.550Z,13.90
2022-09-20T20:23:28.721Z,13.80
2022-09-20T20:26:10.008Z,13.80
2022-09-20T20:28:41.816Z,13.70
2022-09-20T20:31:12.355Z,13.60
2022-09-20T20:33:39.661Z,13.60
2022-09-20T20:36:11.685Z,13.50
2022-09-20T20:38:40.263Z,13.50
2022-09-20T20:41:28.566Z,13.40
2022-09-20T20:43:58.857Z,13.40
2022-09-20T20:46:25.896Z,13.20
2022-09-20T20:48:52.922Z,13.20
2022-09-20T20:51:21.857Z,13.20
2022-09-20T20:53:51.016Z,13.20
2022-09-20T20:56:25.706Z,13.20
2022-09-20T20:58:52.966Z,13.20
2022-09-20T21:01:26.356Z,13.20
2022-09-20T21:03:54.507Z,13.10
2022-09-20T21:06:24.675Z,13.10
2022-09-20T21:08:52.363Z,13.10
2022-09-20T21:11:24.697Z,13.00
2022-09-20T21:13:59.633Z,13.00
2022-09-20T21:16:29.638Z,12.90
2022-09-20T21:18:57.850Z,12.80
2022-09-20T21:21:26.643Z,12.80
2022-09-20T21:23:55.994Z,12.70
2022-09-20T21:26:28.402Z,12.70
2022-09-20T21:28:59.564Z,12.70
2022-09-20T21:31:31.557Z,12.70
2022-09-20T21:33:58.959Z,12.70
2022-09-20T21:36:28.369Z,12.70
2022-09-20T21:38:57.348Z,12.60
2022-09-20T21:41:26.089Z,12.60
2022-09-20T21:43:55.165Z,12.50
2022-09-20T21:46:36.995Z,12.60
2022-09-20T21:49:06.149Z,12.50
2022-09-20T21:51:33.463Z,12.40
2022-09-20T21:54:02.305Z,12.30
2022-09-20T21:56:34.445Z,12.40
2022-09-20T21:59:03.807Z,12.40
2022-09-20T22:01:34.614Z,12.30
2022-09-20T22:04:05.751Z,12.30
2022-09-20T22:06:37.693Z,12.20
2022-09-20T22:09:08.820Z,12.20
2022-09-20T22:11:41.637Z,12.20
2022-09-20T22:14:10.308Z,12.40
2022-09-20T22:16:39.859Z,12.20
2022-09-20T22:19:08.339Z,12.20
2022-09-20T22:21:40.116Z,12.10
2022-09-20T22:24:13.742Z,12.10
2022-09-20T22:26:44.793Z,12.00
2022-09-20T22:29:13.266Z,12.00
2022-09-20T22:31:45.450Z,12.00
2022-09-20T22:34:22.493Z,12.20
2022-09-20T22:36:49.679Z,11.90
2022-09-20T22:39:17.364Z,11.90
2022-09-20T22:41:44.929Z,11.90
2022-09-20T22:44:11.798Z,11.70
2022-09-20T22:46:39.089Z,11.80
2022-09-20T22:49:07.237Z,11.80
2022-09-20T22:51:34.589Z,11.80
2022-09-20T22:54:06.067Z,11.90
2022-09-20T22:56:33.570Z,11.80
2022-09-20T22:59:07.014Z,11.60
2022-09-20T23:01:39.528Z,11.70
2022-09-20T23:04:09.161Z,11.70
2022-09-20T23:06:47.877Z,11.70
2022-09-20T23:09:17.671Z,11.70
2022-09-20T23:11:45.489Z,11.70
2022-09-20T23:14:14.674Z,11.70
2022-09-20T23:16:42.158Z,11.60
2022-09-20T23:19:09.834Z,11.60
2022-09-20T23:21:38.474Z,11.60
2022-09-20T23:24:07.425Z,11.50
2022-09-20T23:26:36.895Z,11.50
2022-09-20T23:29:05.146Z,11.50
2022-09-20T23:31:34.471Z,11.40
2022-09-20T23:34:03.484Z,11.50
2022-09-20T23:36:32.317Z,11.40
2022-09-20T23:38:59.748Z,11.30
2022-09-20T23:41:28.176Z,11.40
2022-09-20T23:43:56.364Z,11.40
2022-09-20T23:46:25.568Z,11.60
2022-09-20T23:48:53.036Z,11.30
2022-09-20T23:51:22.700Z,11.30
2022-09-20T23:53:50.419Z,11.30
2022-09-20T23:56:17.728Z,11.20
2022-09-20T23:58:45.609Z,11.20
